createdAt,value
2022-11-27T00:01:34.731Z,102017.44
2022-11-27T00:04:03.410Z,102019.53
2022-11-27T00:06:32.635Z,102024.41
2022-11-27T00:09:01.964Z,102018.97
2022-11-27T00:11:31.782Z,102023.91
2022-11-27T00:14:02.522Z,102023.37
2022-11-27T00:16:31.200Z,102018.97
2022-11-27T00:18:59.186Z,102008.75
2022-11-27T00:21:31.706Z,102018.22
2022-11-27T00:24:05.949Z,102024.38
2022-11-27T00:26:37.858Z,102018.84
2022-11-27T00:29:07.984Z,102024.44
2022-11-27T00:31:37.962Z,102024.88
2022-11-27T00:34:08.964Z,102021.41
2022-11-27T00:36:38.259Z,102025.47
2022-11-27T00:39:07.091Z,102020.06
2022-11-27T00:41:35.797Z,102013.69
2022-11-27T00:44:04.630Z,102025.66
2022-11-27T00:46:34.482Z,102024.34
2022-11-27T00:49:04.739Z,102023.22
2022-11-27T00:51:36.279Z,102017.53
2022-11-27T00:54:04.974Z,102022.59
2022-11-27T00:56:36.763Z,102024.03
2022-11-27T00:59:06.474Z,102026.28
2022-11-27T01:01:38.897Z,102037.47
2022-11-27T01:04:13.297Z,102035.41
2022-11-27T01:06:42.371Z,102034.78
2022-11-27T01:09:12.779Z,102027.28
2022-11-27T01:11:44.003Z,102026.91
2022-11-27T01:14:16.999Z,102021.91
2022-11-27T01:16:48.024Z,102026.50
2022-11-27T01:19:17.400Z,102007.56
2022-11-27T01:21:46.000Z,102014.41
2022-11-27T01:24:15.793Z,102008.59
2022-11-27T01:26:45.018Z,102012.28
2022-11-27T01:29:13.154Z,102004.75
2022-11-27T01:31:41.494Z,102014.91
2022-11-27T01:34:15.370Z,102006.84
2022-11-27T01:36:43.817Z,102015.25
2022-11-27T01:39:20.582Z,101999.25
2022-11-27T01:41:49.565Z,102004.19
2022-11-27T01:44:27.551Z,102004.47
2022-11-27T01:47:03.980Z,102008.50
2022-11-27T01:49:41.186Z,101998.91
2022-11-27T01:52:13.985Z,102006.66
2022-11-27T01:54:54.235Z,102010.06
2022-11-27T01:57:27.184Z,102007.75
2022-11-27T01:59:58.471Z,102007.38
2022-11-27T02:02:26.971Z,102009.25
2022-11-27T02:04:59.259Z,102013.59
2022-11-27T02:07:27.337Z,102008.03
2022-11-27T02:09:58.356Z,102014.19
2022-11-27T02:13:02.137Z,102010.53
2022-11-27T02:15:49.064Z,102009.37
2022-11-27T02:18:20.021Z,102002.63
2022-11-27T02:21:12.133Z,102013.44
2022-11-27T02:24:01.496Z,102007.25
2022-11-27T02:26:52.594Z,102014.31
2022-11-27T02:29:24.131Z,102012.22
2022-11-27T02:32:19.935Z,102016.81
2022-11-27T02:35:20.239Z,102015.00
2022-11-27T02:37:57.565Z,102000.53
2022-11-27T02:40:39.327Z,102018.56
2022-11-27T02:43:19.204Z,102018.16
2022-11-27T02:45:50.199Z,102021.53
2022-11-27T02:48:23.492Z,102022.72
2022-11-27T02:50:53.512Z,102020.22
2022-11-27T02:53:26.835Z,102028.53
2022-11-27T02:55:56.456Z,102027.53
2022-11-27T02:58:28.235Z,102037.47
2022-11-27T03:00:58.116Z,102032.41
2022-11-27T03:03:34.268Z,102039.50
2022-11-27T03:06:10.075Z,102031.25
2022-11-27T03:09:10.726Z,102050.13
2022-11-27T03:11:40.176Z,102047.06
2022-11-27T03:14:10.602Z,102043.47
2022-11-27T03:16:52.121Z,102042.56
2022-11-27T03:19:27.155Z,102040.13
2022-11-27T03:22:01.171Z,102041.50
2022-11-27T03:24:35.334Z,102039.81
2022-11-27T03:27:05.911Z,102043.22
2022-11-27T03:29:57.056Z,102043.66
2022-11-27T03:32:30.718Z,102038.38
2022-11-27T03:34:58.713Z,102048.88
2022-11-27T03:37:27.897Z,102037.44
2022-11-27T03:39:56.283Z,102047.09
2022-11-27T03:42:31.231Z,102041.75
2022-11-27T03:45:08.741Z,102034.88
2022-11-27T03:47:51.744Z,102034.78
2022-11-27T03:50:52.248Z,102040.56
2022-11-27T03:53:26.271Z,102040.06
2022-11-27T03:56:00.999Z,102037.19
2022-11-27T03:58:35.551Z,102017.75
2022-11-27T04:01:06.806Z,102041.94
2022-11-27T04:03:36.330Z,102047.16
2022-11-27T04:06:04.827Z,102047.22
2022-11-27T04:08:32.752Z,102047.84
2022-11-27T04:11:00.940Z,102028.75
2022-11-27T04:13:28.843Z,102039.03
2022-11-27T04:15:56.800Z,102049.56
2022-11-27T04:18:25.026Z,102046.72
2022-11-27T04:20:52.975Z,102044.53
2022-11-27T04:23:20.793Z,102051.25
2022-11-27T04:25:49.893Z,102033.81
2022-11-27T04:28:24.273Z,102049.09
2022-11-27T04:30:55.075Z,102055.56
2022-11-27T04:33:23.757Z,102058.75
2022-11-27T04:35:52.591Z,102058.00
2022-11-27T04:38:23.710Z,102059.69
2022-11-27T04:40:58.311Z,102064.66
2022-11-27T04:43:26.564Z,102066.06
2022-11-27T04:45:54.462Z,102051.66
2022-11-27T04:48:22.247Z,102060.19
2022-11-27T04:50:50.478Z,102065.84
2022-11-27T04:53:18.352Z,102046.16
2022-11-27T04:55:46.214Z,102057.72
2022-11-27T04:58:14.405Z,102062.25
2022-11-27T05:00:42.106Z,102069.25
2022-11-27T05:03:10.103Z,102069.50
2022-11-27T05:05:38.748Z,102070.91
2022-11-27T05:08:10.553Z,102051.97
2022-11-27T05:10:38.811Z,102063.97
2022-11-27T05:13:06.623Z,102059.72
2022-11-27T05:15:34.434Z,102067.09
2022-11-27T05:18:02.587Z,102061.97
2022-11-27T05:20:30.539Z,102068.88
2022-11-27T05:22:58.389Z,102064.44
2022-11-27T05:25:26.584Z,102070.47
2022-11-27T05:27:57.588Z,102062.59
2022-11-27T05:30:25.468Z,102066.94
2022-11-27T05:32:56.825Z,102071.88
2022-11-27T05:35:24.529Z,102074.03
2022-11-27T05:37:52.384Z,102075.47
2022-11-27T05:40:21.094Z,102080.00
2022-11-27T05:42:48.924Z,102075.31
2022-11-27T05:45:16.630Z,102078.31
2022-11-27T05:47:44.838Z,102072.50
2022-11-27T05:50:12.712Z,102076.31
2022-11-27T05:52:40.631Z,102078.84
2022-11-27T05:55:09.474Z,102076.56
2022-11-27T05:57:37.268Z,102058.75
2022-11-27T06:00:07.895Z,102069.84
2022-11-27T06:02:37.163Z,102062.66
2022-11-27T06:05:05.382Z,102063.13
2022-11-27T06:07:33.090Z,102068.63
2022-11-27T06:10:01.386Z,102065.91
2022-11-27T06:12:33.206Z,102066.53
2022-11-27T06:15:01.465Z,102066.34
2022-11-27T06:17:31.056Z,102070.47
2022-11-27T06:19:59.176Z,102079.94
2022-11-27T06:22:27.434Z,102076.41
2022-11-27T06:24:55.933Z,102079.75
2022-11-27T06:27:26.847Z,102083.38
2022-11-27T06:29:55.070Z,102072.31
2022-11-27T06:32:22.781Z,102083.75
2022-11-27T06:34:50.657Z,102085.16
2022-11-27T06:37:18.953Z,102089.44
2022-11-27T06:39:48.744Z,102096.28
2022-11-27T06:42:16.722Z,102088.53
2022-11-27T06:44:45.062Z,102092.06
2022-11-27T06:47:13.075Z,102080.25
2022-11-27T06:49:41.065Z,102087.03
2022-11-27T06:52:09.438Z,102084.66
2022-11-27T06:54:40.398Z,102086.41
2022-11-27T06:57:08.437Z,102090.00
2022-11-27T06:59:36.619Z,102086.72
2022-11-27T07:02:04.542Z,102073.69
2022-11-27T07:04:33.742Z,102094.09
2022-11-27T07:07:04.906Z,102090.00
2022-11-27T07:09:32.727Z,102086.66
2022-11-27T07:12:00.438Z,102084.88
2022-11-27T07:14:28.549Z,102088.22
2022-11-27T07:16:59.520Z,102080.72
2022-11-27T07:19:27.284Z,102073.59
2022-11-27T07:21:55.605Z,102070.19
2022-11-27T07:24:23.635Z,102079.88
2022-11-27T07:26:51.499Z,102076.41
2022-11-27T07:29:19.572Z,102093.63
2022-11-27T07:31:47.512Z,102086.66
2022-11-27T07:34:21.405Z,102086.66
2022-11-27T07:36:50.449Z,102091.03
2022-11-27T07:39:33.886Z,102081.59
2022-11-27T07:42:36.399Z,102086.88
2022-11-27T07:44:55.885Z,102086.94
2022-11-27T07:47:24.212Z,102089.66
2022-11-27T07:49:52.244Z,102081.94
2022-11-27T07:52:20.082Z,102078.53
2022-11-27T07:54:48.291Z,102078.56
2022-11-27T07:57:16.077Z,102080.25
2022-11-27T07:59:47.629Z,102075.94
2022-11-27T08:02:16.443Z,102084.53
2022-11-27T08:04:44.997Z,102086.25
2022-11-27T08:07:13.360Z,102084.56
2022-11-27T08:09:41.156Z,102088.91
2022-11-27T08:12:09.318Z,102097.47
2022-11-27T08:14:37.248Z,102094.03
2022-11-27T08:17:05.054Z,102095.78
2022-11-27T08:19:33.613Z,102088.91
2022-11-27T08:24:48.428Z,102097.47
2022-11-27T08:30:02.742Z,102091.47
2022-11-27T08:32:31.366Z,102097.50
2022-11-27T08:34:59.381Z,102094.91
2022-11-27T08:37:27.778Z,102086.28
2022-11-27T08:39:55.684Z,102093.22
2022-11-27T08:42:23.912Z,102086.34
2022-11-27T08:44:52.345Z,102088.09
2022-11-27T08:47:20.146Z,102090.66
2022-11-27T08:49:48.065Z,102091.56
2022-11-27T08:52:16.432Z,102095.00
2022-11-27T08:54:44.293Z,102095.84
2022-11-27T08:57:12.306Z,102088.13
2022-11-27T08:59:43.875Z,102095.03
2022-11-27T09:02:14.631Z,102096.75
2022-11-27T09:04:43.020Z,102095.88
2022-11-27T09:07:14.843Z,102094.16
2022-11-27T09:09:43.365Z,102091.53
2022-11-27T09:12:11.106Z,102097.59
2022-11-27T09:14:42.241Z,102101.94
2022-11-27T09:17:13.546Z,102096.75
2022-11-27T09:19:41.511Z,102097.59
2022-11-27T09:22:09.397Z,102088.97
2022-11-27T09:24:37.616Z,102090.72
2022-11-27T09:27:08.309Z,102092.47
2022-11-27T09:29:36.534Z,102089.00
2022-11-27T09:32:06.008Z,102097.63
2022-11-27T09:34:37.490Z,102098.47
2022-11-27T09:37:06.242Z,102095.88
2022-11-27T09:39:37.529Z,102100.16
2022-11-27T09:42:09.975Z,102087.25
2022-11-27T09:44:41.049Z,102091.53
2022-11-27T09:47:41.927Z,102095.00
2022-11-27T09:50:30.461Z,102095.84
2022-11-27T09:53:23.746Z,102101.88
2022-11-27T09:55:58.573Z,102094.13
2022-11-27T09:58:39.815Z,102101.03
2022-11-27T10:01:28.596Z,102094.13
2022-11-27T10:04:06.988Z,102099.31
2022-11-27T10:06:44.185Z,102094.13
2022-11-27T10:09:25.644Z,102099.28
2022-11-27T10:12:01.069Z,102096.66
2022-11-27T10:14:47.463Z,102084.63
2022-11-27T10:17:26.192Z,102087.22
2022-11-27T10:20:18.744Z,102093.19
2022-11-27T10:22:57.043Z,102082.91
2022-11-27T10:25:44.629Z,102074.25
2022-11-27T10:28:41.998Z,102084.66
2022-11-27T10:31:45.768Z,102079.50
2022-11-27T10:34:38.816Z,102087.25
2022-11-27T10:37:16.355Z,102092.41
2022-11-27T10:39:54.398Z,102094.06
2022-11-27T10:42:32.689Z,102094.16
2022-11-27T10:45:07.820Z,102093.25
2022-11-27T10:47:38.741Z,102101.88
2022-11-27T10:50:14.501Z,102100.16
2022-11-27T10:52:59.853Z,102098.37
2022-11-27T10:55:46.387Z,102097.56
2022-11-27T10:58:38.804Z,102098.41
2022-11-27T11:01:21.262Z,102101.03
2022-11-27T11:03:49.444Z,102096.69
2022-11-27T11:06:21.242Z,102104.41
2022-11-27T11:09:16.357Z,102104.44
2022-11-27T11:11:44.375Z,102105.28
2022-11-27T11:14:24.847Z,102105.28
2022-11-27T11:16:54.830Z,102108.75
2022-11-27T11:19:26.375Z,102107.81
2022-11-27T11:21:54.365Z,102107.03
2022-11-27T11:24:31.884Z,102106.12
2022-11-27T11:27:05.422Z,102113.03
2022-11-27T11:29:42.335Z,102113.88
2022-11-27T11:32:12.007Z,102104.44
2022-11-27T11:34:46.235Z,102102.72
2022-11-27T11:37:29.257Z,102100.09
2022-11-27T11:40:04.308Z,102113.78
2022-11-27T11:42:35.043Z,102116.31
2022-11-27T11:45:03.003Z,102111.25
2022-11-27T11:47:32.167Z,102117.31
2022-11-27T11:50:01.455Z,102114.63
2022-11-27T11:52:36.725Z,102122.47
2022-11-27T11:55:25.547Z,102121.50
2022-11-27T11:58:10.554Z,102122.47
2022-11-27T12:01:18.963Z,102119.09
2022-11-27T12:03:58.749Z,102128.47
2022-11-27T12:06:46.162Z,102119.84
2022-11-27T12:09:33.030Z,102119.81
2022-11-27T12:12:14.063Z,102126.78
2022-11-27T12:14:50.596Z,102121.59
2022-11-27T12:17:57.116Z,102118.06
2022-11-27T12:20:51.142Z,102121.63
2022-11-27T12:23:39.928Z,102119.00
2022-11-27T12:26:32.924Z,102113.84
2022-11-27T12:29:06.263Z,102119.88
2022-11-27T12:31:46.474Z,102118.13
2022-11-27T12:34:38.630Z,102116.47
2022-11-27T12:37:30.899Z,102115.56
2022-11-27T12:40:19.881Z,102116.41
2022-11-27T12:43:19.490Z,102118.13
2022-11-27T12:45:59.434Z,102119.94
2022-11-27T12:48:43.689Z,102121.56
2022-11-27T12:51:49.569Z,102114.63
2022-11-27T12:54:30.204Z,102124.81
2022-11-27T12:57:07.694Z,102128.34
2022-11-27T12:59:40.498Z,102111.19
2022-11-27T13:02:46.890Z,102107.66
2022-11-27T13:05:29.192Z,102124.44
2022-11-27T13:08:16.319Z,102123.00
2022-11-27T13:10:51.869Z,102126.25
2022-11-27T13:13:38.101Z,102126.62
2022-11-27T13:16:13.479Z,102127.53
2022-11-27T13:18:47.209Z,102128.91
2022-11-27T13:21:20.727Z,102132.38
2022-11-27T13:23:48.588Z,102130.06
2022-11-27T13:32:30.709Z,102130.94
2022-11-27T13:35:03.158Z,102126.75
2022-11-27T13:37:37.117Z,102132.72
2022-11-27T13:40:06.982Z,102122.44
2022-11-27T13:42:37.269Z,102125.84
2022-11-27T13:45:20.206Z,102131.06
2022-11-27T13:47:49.660Z,102130.19
2022-11-27T13:50:20.904Z,102131.91
2022-11-27T13:53:00.362Z,102137.88
2022-11-27T13:55:29.953Z,102135.25
2022-11-27T13:57:59.910Z,102130.22
2022-11-27T14:00:40.264Z,102131.00
2022-11-27T14:03:22.074Z,102128.28
2022-11-27T14:05:49.803Z,102136.16
2022-11-27T14:08:24.382Z,102145.69
2022-11-27T14:11:04.237Z,102145.69
2022-11-27T14:13:39.750Z,102147.38
2022-11-27T14:16:35.844Z,102147.38
2022-11-27T14:19:23.357Z,102143.09
2022-11-27T14:21:51.350Z,102150.84
2022-11-27T14:24:28.467Z,102153.34
2022-11-27T14:26:56.401Z,102154.16
2022-11-27T14:29:29.481Z,102152.50
2022-11-27T14:32:00.300Z,102151.72
2022-11-27T14:34:35.205Z,102143.94
2022-11-27T14:37:03.016Z,102153.41
2022-11-27T14:39:38.327Z,102147.25
2022-11-27T14:42:08.395Z,102145.66
2022-11-27T14:44:36.572Z,102159.44
2022-11-27T14:47:08.746Z,102152.66
2022-11-27T14:49:37.015Z,102153.44
2022-11-27T14:52:07.796Z,102155.19
2022-11-27T14:54:39.426Z,102156.84
2022-11-27T14:57:14.526Z,102162.03
2022-11-27T14:59:45.895Z,102155.19
2022-11-27T15:02:13.756Z,102168.06
2022-11-27T15:04:44.559Z,102159.50
2022-11-27T15:07:25.758Z,102156.78
2022-11-27T15:09:59.439Z,102155.94
2022-11-27T15:12:37.121Z,102161.00
2022-11-27T15:15:30.066Z,102155.81
2022-11-27T15:18:09.395Z,102159.41
2022-11-27T15:20:46.126Z,102150.78
2022-11-27T15:23:18.546Z,102155.94
2022-11-27T15:25:48.021Z,102161.09
2022-11-27T15:28:37.141Z,102162.84
2022-11-27T15:31:33.286Z,102161.97
2022-11-27T15:34:04.894Z,102159.28
2022-11-27T15:36:43.758Z,102152.56
2022-11-27T15:39:21.863Z,102154.16
2022-11-27T15:41:52.068Z,102148.94
2022-11-27T15:44:19.903Z,102150.81
2022-11-27T15:46:47.997Z,102149.06
2022-11-27T15:49:16.239Z,102156.84
2022-11-27T15:51:44.099Z,102153.31
2022-11-27T15:54:11.940Z,102153.41
2022-11-27T15:56:40.171Z,102149.00
2022-11-27T15:59:08.226Z,102152.47
2022-11-27T16:01:36.043Z,102159.41
2022-11-27T16:04:04.454Z,102158.47
2022-11-27T16:06:32.317Z,102153.13
2022-11-27T16:09:01.863Z,102167.00
2022-11-27T16:11:31.874Z,102164.47
2022-11-27T16:13:59.761Z,102169.72
2022-11-27T16:16:28.288Z,102156.75
2022-11-27T16:19:01.175Z,102168.63
2022-11-27T16:21:30.437Z,102172.31
2022-11-27T16:24:00.302Z,102166.16
2022-11-27T16:26:29.061Z,102174.88
2022-11-27T16:28:57.584Z,102174.88
2022-11-27T16:31:26.768Z,102184.28
2022-11-27T16:33:57.641Z,102186.97
2022-11-27T16:36:26.187Z,102188.63
2022-11-27T16:38:55.212Z,102178.34
2022-11-27T16:41:25.428Z,102176.63
2022-11-27T16:43:56.293Z,102186.91
2022-11-27T16:46:27.894Z,102183.47
2022-11-27T16:48:59.110Z,102184.28
2022-11-27T16:51:34.992Z,102174.88
2022-11-27T16:54:06.335Z,102190.31
2022-11-27T16:56:35.475Z,102192.09
2022-11-27T16:59:09.316Z,102190.34
2022-11-27T17:01:41.498Z,102169.66
2022-11-27T17:04:16.692Z,102202.22
2022-11-27T17:06:49.771Z,102197.25
2022-11-27T17:09:18.734Z,102210.84
2022-11-27T17:11:51.224Z,102203.22
2022-11-27T17:14:22.139Z,102210.94
2022-11-27T17:16:50.366Z,102207.25
2022-11-27T17:19:19.231Z,102185.87
2022-11-27T17:21:48.233Z,102205.69
2022-11-27T17:24:18.671Z,102195.44
2022-11-27T17:26:48.792Z,102197.19
2022-11-27T17:29:22.000Z,102186.81
2022-11-27T17:31:51.134Z,102192.84
2022-11-27T17:34:21.035Z,102188.63
2022-11-27T17:36:53.834Z,102173.09
2022-11-27T17:39:25.814Z,102193.59
2022-11-27T17:41:54.269Z,102204.00
2022-11-27T17:44:22.666Z,102188.63
2022-11-27T17:46:50.993Z,102187.75
2022-11-27T17:49:19.957Z,102186.84
2022-11-27T17:51:50.738Z,102185.13
2022-11-27T17:54:19.044Z,102189.47
2022-11-27T17:56:51.660Z,102198.03
2022-11-27T17:59:21.104Z,102207.34
2022-11-27T18:01:53.128Z,102200.53
2022-11-27T18:04:21.996Z,102207.34
2022-11-27T18:06:50.195Z,102207.06
2022-11-27T18:09:17.908Z,102204.59
2022-11-27T18:11:46.349Z,102203.06
2022-11-27T18:14:14.487Z,102205.72
2022-11-27T18:16:42.979Z,102202.34
2022-11-27T18:19:14.777Z,102209.09
2022-11-27T18:21:42.833Z,102210.00
2022-11-27T18:24:28.183Z,102213.47
2022-11-27T18:27:12.291Z,102204.88
2022-11-27T18:29:43.261Z,102204.06
2022-11-27T18:32:13.199Z,102201.47
2022-11-27T18:34:43.030Z,102207.50
2022-11-27T18:37:12.420Z,102198.94
2022-11-27T18:39:41.047Z,102203.91
2022-11-27T18:42:10.091Z,102207.22
2022-11-27T18:44:44.317Z,102201.41
2022-11-27T18:47:16.049Z,102210.06
2022-11-27T18:49:44.928Z,102211.72
2022-11-27T18:55:01.077Z,102209.91
2022-11-27T19:00:17.700Z,102209.22
2022-11-27T19:02:46.083Z,102204.03
2022-11-27T19:05:14.308Z,102200.50
2022-11-27T19:07:43.121Z,102204.72
2022-11-27T19:10:11.729Z,102198.81
2022-11-27T19:12:40.443Z,102193.66
2022-11-27T19:15:09.184Z,102195.38
2022-11-27T19:17:37.344Z,102189.44
2022-11-27T19:20:08.039Z,102194.56
2022-11-27T19:22:39.109Z,102199.72
2022-11-27T19:25:08.121Z,102198.81
2022-11-27T19:27:36.304Z,102197.97
2022-11-27T19:30:08.238Z,102206.41
2022-11-27T19:32:36.613Z,102199.50
2022-11-27T19:35:07.305Z,102204.03
2022-11-27T19:37:37.239Z,102201.50
2022-11-27T19:40:07.041Z,102196.03
2022-11-27T19:42:35.014Z,102205.63
2022-11-27T19:45:03.027Z,102206.41
2022-11-27T19:47:31.730Z,102208.78
2022-11-27T19:49:59.701Z,102209.06
2022-11-27T19:52:27.630Z,102214.13
2022-11-27T19:54:55.911Z,102212.47
2022-11-27T19:57:24.412Z,102210.84
2022-11-27T19:59:52.294Z,102211.53
2022-11-27T20:02:20.580Z,102212.59
2022-11-27T20:04:49.006Z,102215.25
2022-11-27T20:07:17.034Z,102207.41
2022-11-27T20:09:44.851Z,102205.59
2022-11-27T20:12:13.282Z,102214.34
2022-11-27T20:14:41.613Z,102222.06
2022-11-27T20:17:09.648Z,102215.25
2022-11-27T20:19:39.265Z,102204.75
2022-11-27T20:22:07.292Z,102224.62
2022-11-27T20:24:38.220Z,102226.37
2022-11-27T20:27:13.217Z,102229.75
2022-11-27T20:29:41.355Z,102229.91
2022-11-27T20:32:09.485Z,102229.72
2022-11-27T20:34:39.263Z,102228.97
2022-11-27T20:37:09.084Z,102228.97
2022-11-27T20:39:38.710Z,102238.34
2022-11-27T20:42:06.948Z,102240.03
2022-11-27T20:44:34.855Z,102242.78
2022-11-27T20:47:03.228Z,102243.69
2022-11-27T20:49:33.975Z,102246.22
2022-11-27T20:52:04.320Z,102241.06
2022-11-27T20:54:32.642Z,102242.72
2022-11-27T20:57:01.224Z,102243.66
2022-11-27T20:59:29.220Z,102248.72
2022-11-27T21:01:57.847Z,102249.56
2022-11-27T21:04:26.881Z,102260.66
2022-11-27T21:06:54.939Z,102254.72
2022-11-27T21:09:24.346Z,102260.69
2022-11-27T21:11:52.163Z,102262.38
2022-11-27T21:14:20.137Z,102255.56
2022-11-27T21:16:51.460Z,102240.75
2022-11-27T21:19:22.169Z,102267.59
2022-11-27T21:21:51.773Z,102266.81
2022-11-27T21:24:20.975Z,102272.81
2022-11-27T21:26:49.003Z,102265.94
2022-11-27T21:29:17.826Z,102274.63
2022-11-27T21:31:47.440Z,102276.22
2022-11-27T21:34:16.408Z,102265.94
2022-11-27T21:36:48.056Z,102273.69
2022-11-27T21:39:21.996Z,102281.37
2022-11-27T21:41:53.256Z,102272.84
2022-11-27T21:44:22.178Z,102276.28
2022-11-27T21:46:50.572Z,102276.16
2022-11-27T21:49:20.123Z,102283.09
2022-11-27T21:51:51.714Z,102285.62
2022-11-27T21:54:23.251Z,102287.37
2022-11-27T21:56:53.985Z,102284.84
2022-11-27T21:59:22.331Z,102290.87
2022-11-27T22:01:53.326Z,102293.41
2022-11-27T22:04:21.619Z,102296.75
2022-11-27T22:06:51.693Z,102294.28
2022-11-27T22:09:19.571Z,102289.03
2022-11-27T22:11:47.847Z,102289.88
2022-11-27T22:14:16.878Z,102299.38
2022-11-27T22:16:46.578Z,102296.81
2022-11-27T22:19:15.936Z,102300.22
2022-11-27T22:21:44.911Z,102312.28
2022-11-27T22:24:18.262Z,102309.72
2022-11-27T22:26:48.652Z,102303.66
2022-11-27T22:29:17.238Z,102302.78
2022-11-27T22:31:45.124Z,102308.88
2022-11-27T22:34:17.350Z,102316.62
2022-11-27T22:36:46.087Z,102298.44
2022-11-27T22:39:14.399Z,102308.81
2022-11-27T22:41:43.047Z,102312.22
2022-11-27T22:44:21.149Z,102308.72
2022-11-27T22:46:49.682Z,102310.38
2022-11-27T22:49:19.023Z,102315.59
2022-11-27T22:51:47.745Z,102310.47
2022-11-27T22:54:17.444Z,102308.72
2022-11-27T22:56:46.481Z,102314.75
2022-11-27T23:02:04.472Z,102309.47
2022-11-27T23:04:37.380Z,102311.16
2022-11-27T23:07:06.607Z,102306.16
2022-11-27T23:09:35.259Z,102308.72
2022-11-27T23:12:03.204Z,102311.28
2022-11-27T23:14:31.361Z,102310.47
2022-11-27T23:16:59.296Z,102314.69
2022-11-27T23:19:27.215Z,102314.69
2022-11-27T23:21:55.497Z,102314.75
2022-11-27T23:24:23.690Z,102317.25
2022-11-27T23:26:51.534Z,102313.75
2022-11-27T23:29:19.604Z,102316.44
2022-11-27T23:31:47.547Z,102319.84
2022-11-27T23:34:16.310Z,102316.47
2022-11-27T23:36:44.565Z,102318.97
2022-11-27T23:39:13.814Z,102323.28
2022-11-27T23:41:42.045Z,102324.78
2022-11-27T23:44:10.315Z,102330.16
2022-11-27T23:46:38.069Z,102332.69
2022-11-27T23:49:06.002Z,102338.63
2022-11-27T23:51:34.459Z,102332.69
2022-11-27T23:54:09.526Z,102341.34
2022-11-27T23:56:38.822Z,102334.50
2022-11-27T23:59:09.705Z,102341.34
